Terminal Aerodrome Forecast
Issued by NWS

Home | Current Version | Previous Version | Text Only | Print | Product List | Glossary On
Versions: 1 2 3 4 5 6 7 8 9 10 11 12 13 14
000
FTUS44 KLZK 260530
TAFBPK
TAF
KBPK 260530Z 2606/2706 00000KT P6SM SCT250
     FM261400 14003KT P6SM VCSH SCT100 OVC250
      TEMPO 2620/2624 5SM TSRA BR OVC035CB
     FM270000 14004KT P6SM BKN250=

USA.gov is the U.S. government's official web portal to all federal, state and local government web resources and services.